Time;durP1;ratioP1;P1;durP2;ratioP2;P2;SDS_P1;SDS_P2;PMS_P1;PMS_P2;Temp;Humidity;BMP_temperature;BMP_pressure;BME280_temperature;BME280_humidity;BME280_pressure;Samples;Min_cycle;Max_cycle;Signal;HPM_P1;HPM_P2
2021/03/20 00:00:31;;;;;;;3.85;1.05;;;1.40;99.90;;;;;;4966641;28;20061;-79
2021/03/20 00:02:57;;;;;;;2.40;0.80;;;1.40;99.90;;;;;;4966129;28;20094;-80
2021/03/20 00:05:23;;;;;;;3.67;0.88;;;1.40;99.90;;;;;;4966343;28;20487;-79
2021/03/20 00:07:51;;;;;;;3.45;0.80;;;1.40;99.90;;;;;;4966490;28;20067;-79
2021/03/20 00:10:19;;;;;;;3.13;1.08;;;1.30;99.90;;;;;;4982690;28;20100;-79
2021/03/20 00:12:47;;;;;;;2.13;1.00;;;1.30;99.90;;;;;;4966185;29;20046;-79
2021/03/20 00:15:15;;;;;;;4.85;0.90;;;1.20;99.90;;;;;;4966459;29;20035;-79
2021/03/20 00:17:42;;;;;;;2.42;0.90;;;1.10;99.90;;;;;;4966373;29;20031;-79
2021/03/20 00:20:10;;;;;;;3.45;1.20;;;1.10;99.90;;;;;;4982684;28;20039;-79
2021/03/20 00:22:36;;;;;;;2.25;1.00;;;1.10;99.90;;;;;;4966510;29;20055;-79
2021/03/20 00:25:04;;;;;;;3.97;1.48;;;1.10;99.90;;;;;;4982660;28;20039;-79
2021/03/20 00:27:30;;;;;;;3.25;1.38;;;1.20;99.90;;;;;;4966322;28;20031;-79
2021/03/20 00:29:55;;;;;;;4.82;1.00;;;1.20;99.90;;;;;;4982368;28;20039;-79
2021/03/20 00:32:21;;;;;;;1.95;0.90;;;1.20;99.90;;;;;;4982149;28;20067;-79
2021/03/20 00:34:47;;;;;;;3.30;1.17;;;1.30;99.90;;;;;;4982269;28;20038;-79
2021/03/20 00:37:13;;;;;;;5.40;1.63;;;1.20;99.90;;;;;;4982062;28;20038;-79
2021/03/20 00:39:41;;;;;;;5.63;2.00;;;1.10;99.90;;;;;;4965840;28;20082;-79
2021/03/20 00:42:08;;;;;;;2.38;1.05;;;1.10;99.90;;;;;;4982005;28;20042;-79
2021/03/20 00:44:34;;;;;;;3.75;1.33;;;1.00;99.90;;;;;;4982149;28;20032;-79
2021/03/20 00:47:00;;;;;;;2.50;1.40;;;1.00;99.90;;;;;;4966226;28;20109;-79
2021/03/20 00:49:26;;;;;;;4.22;1.17;;;0.90;99.90;;;;;;4966062;28;20539;-79
2021/03/20 00:51:51;;;;;;;3.38;1.48;;;0.90;99.90;;;;;;4965911;28;20062;-79
2021/03/20 00:54:18;;;;;;;4.25;1.45;;;0.90;99.90;;;;;;4965859;29;20044;-79
2021/03/20 00:56:44;;;;;;;4.38;1.75;;;0.90;99.90;;;;;;4965921;28;20038;-79
2021/03/20 00:59:10;;;;;;;3.08;1.20;;;0.80;99.90;;;;;;4965914;28;20035;-79
2021/03/20 01:01:35;;;;;;;3.03;1.30;;;0.70;99.90;;;;;;4965757;29;20028;-79
2021/03/20 01:04:01;;;;;;;3.25;1.35;;;0.80;99.90;;;;;;4965987;29;20031;-79
2021/03/20 01:06:28;;;;;;;2.47;1.30;;;0.70;99.90;;;;;;4993513;22;20018;-80
2021/03/20 01:08:56;;;;;;;3.70;1.30;;;0.70;99.90;;;;;;4986653;28;20510;-79
2021/03/20 01:11:24;;;;;;;3.28;1.27;;;0.60;99.90;;;;;;5021194;28;20030;-79
2021/03/20 01:13:51;;;;;;;3.13;1.20;;;0.60;99.90;;;;;;5021296;28;20092;-79
2021/03/20 01:16:17;;;;;;;4.55;1.60;;;0.60;99.90;;;;;;5021121;28;20027;-79
2021/03/20 01:18:42;;;;;;;2.95;1.20;;;0.60;99.90;;;;;;5021356;28;20038;-79
2021/03/20 01:21:10;;;;;;;3.30;1.50;;;0.60;99.90;;;;;;4988443;28;20030;-78
2021/03/20 01:23:37;;;;;;;2.33;1.20;;;0.60;99.90;;;;;;4988813;28;20053;-79
2021/03/20 01:26:03;;;;;;;2.97;1.35;;;0.50;99.90;;;;;;4988679;28;20121;-79
2021/03/20 01:28:31;;;;;;;2.80;1.30;;;0.50;99.90;;;;;;4988638;28;20038;-78
2021/03/20 01:30:57;;;;;;;4.40;1.30;;;0.40;99.90;;;;;;4988503;28;20129;-79
2021/03/20 01:33:23;;;;;;;2.67;1.38;;;0.40;99.90;;;;;;5021134;28;20038;-78
2021/03/20 01:35:49;;;;;;;3.15;1.45;;;0.50;99.90;;;;;;5005863;28;20065;-79
2021/03/20 01:38:15;;;;;;;3.10;1.50;;;0.40;99.90;;;;;;4988682;28;20062;-79
2021/03/20 01:40:45;;;;;;;2.53;1.10;;;0.40;99.90;;;;;;5021018;28;20027;-79
2021/03/20 01:43:16;;;;;;;3.63;0.95;;;0.30;99.90;;;;;;5021015;28;20031;-79
2021/03/20 01:45:42;;;;;;;3.28;1.33;;;0.40;99.90;;;;;;5020842;28;20041;-78
2021/03/20 01:48:20;;;;;;;3.65;1.45;;;0.30;99.90;;;;;;4987893;28;20034;-78
2021/03/20 01:50:51;;;;;;;4.13;1.02;;;0.30;99.90;;;;;;5004297;28;20101;-79
2021/03/20 01:53:41;;;;;;;3.28;1.00;;;0.20;99.90;;;;;;4990253;28;20070;-78
2021/03/20 01:56:23;;;;;;;3.58;1.02;;;0.10;99.90;;;;;;5024281;28;20041;-78
2021/03/20 01:58:51;;;;;;;3.83;1.27;;;0.10;99.90;;;;;;5007915;28;20034;-79
2021/03/20 02:01:23;;;;;;;2.75;1.02;;;0.10;99.90;;;;;;5007544;28;20026;-78
2021/03/20 02:03:50;;;;;;;3.10;0.88;;;0.00;99.90;;;;;;5024329;28;20031;-78
2021/03/20 02:06:16;;;;;;;3.38;1.35;;;0.00;99.90;;;;;;5024132;28;20038;-78
2021/03/20 02:08:45;;;;;;;3.10;1.10;;;-0.10;99.90;;;;;;5023864;28;20050;-79
2021/03/20 02:11:36;;;;;;;2.83;1.25;;;-0.10;99.90;;;;;;5023816;28;20034;-79
2021/03/20 02:14:17;;;;;;;2.72;0.82;;;-0.20;99.90;;;;;;5007326;28;20046;-79
2021/03/20 02:16:55;;;;;;;3.08;0.98;;;-0.20;99.90;;;;;;5008543;28;20027;-81
2021/03/20 02:20:00;;;;;;;2.25;0.73;;;-0.30;99.90;;;;;;4991240;28;20073;-78
2021/03/20 02:22:52;;;;;;;2.50;0.90;;;-0.30;99.90;;;;;;4991121;28;20026;-78
2021/03/20 02:25:43;;;;;;;3.67;0.88;;;-0.30;99.90;;;;;;5007340;28;20058;-78
2021/03/20 02:28:27;;;;;;;2.20;0.80;;;-0.50;99.90;;;;;;5008464;28;20022;-78
2021/03/20 02:31:47;;;;;;;3.63;0.80;;;-0.40;99.90;;;;;;5007004;28;20035;-79
2021/03/20 02:34:27;;;;;;;3.88;0.93;;;-0.40;99.90;;;;;;4986580;28;20051;-78
2021/03/20 02:37:06;;;;;;;5.43;0.80;;;-0.40;99.90;;;;;;4986295;28;20074;-78
2021/03/20 02:39:41;;;;;;;3.13;0.90;;;-0.50;99.90;;;;;;5014192;28;20068;-79
2021/03/20 02:42:29;;;;;;;4.00;0.73;;;-0.60;99.90;;;;;;4990553;28;20034;-78
2021/03/20 02:45:07;;;;;;;2.67;0.93;;;-0.70;99.90;;;;;;4997391;28;20063;-78
2021/03/20 02:47:50;;;;;;;3.92;0.82;;;-0.70;99.90;;;;;;5007005;28;20097;-78
2021/03/20 02:50:22;;;;;;;3.13;0.90;;;-0.80;99.90;;;;;;4990568;28;20113;-78
2021/03/20 02:52:47;;;;;;;4.57;1.33;;;-0.80;99.90;;;;;;5006666;28;20034;-79
2021/03/20 02:55:38;;;;;;;2.65;0.68;;;-0.80;99.90;;;;;;4990595;28;20034;-79
2021/03/20 02:58:05;;;;;;;2.30;0.70;;;-1.00;99.90;;;;;;5023226;28;20026;-78
2021/03/20 03:01:03;;;;;;;3.08;0.98;;;-1.00;99.90;;;;;;5006663;28;20026;-79
2021/03/20 03:03:42;;;;;;;2.58;0.70;;;-1.00;99.90;;;;;;4991478;28;20133;-79
2021/03/20 03:06:39;;;;;;;3.10;0.90;;;-1.10;99.90;;;;;;5007955;28;20022;-78
2021/03/20 03:09:11;;;;;;;2.38;0.80;;;-1.00;99.90;;;;;;5023997;28;20043;-78
2021/03/20 03:12:08;;;;;;;2.72;1.00;;;-1.10;99.90;;;;;;5022974;28;20430;-78
2021/03/20 03:14:58;;;;;;;2.90;0.93;;;-1.20;99.90;;;;;;5006389;28;20042;-79
2021/03/20 03:17:26;;;;;;;3.40;0.90;;;-1.20;99.90;;;;;;5006348;28;20034;-79
2021/03/20 03:19:58;;;;;;;3.72;1.23;;;-1.30;99.90;;;;;;4990203;28;20042;-78
2021/03/20 03:22:30;;;;;;;2.42;0.80;;;-1.30;99.90;;;;;;5006291;28;20034;-78
2021/03/20 03:25:01;;;;;;;3.60;0.95;;;-1.20;99.90;;;;;;4990184;28;20056;-78
2021/03/20 03:27:30;;;;;;;2.88;0.80;;;-1.30;99.90;;;;;;4990044;28;20046;-78
2021/03/20 03:29:56;;;;;;;3.10;1.13;;;-1.40;99.90;;;;;;4989966;28;20041;-78
2021/03/20 03:32:33;;;;;;;3.63;1.10;;;-1.40;99.90;;;;;;4989643;28;20034;-78
2021/03/20 03:35:04;;;;;;;3.63;0.95;;;-1.40;99.90;;;;;;4990030;28;20044;-78
2021/03/20 03:37:57;;;;;;;2.40;1.00;;;-1.50;99.90;;;;;;5005972;28;20570;-78
2021/03/20 03:40:41;;;;;;;3.83;1.00;;;-1.50;99.90;;;;;;5022409;28;20030;-78
2021/03/20 03:43:07;;;;;;;2.60;1.08;;;-1.60;99.90;;;;;;5005915;28;20034;-78
2021/03/20 03:45:33;;;;;;;2.53;0.90;;;-1.70;99.90;;;;;;5005915;28;20387;-78
2021/03/20 03:47:59;;;;;;;4.25;1.15;;;-1.60;99.90;;;;;;5005783;28;20035;-79
2021/03/20 03:50:30;;;;;;;3.08;1.02;;;-1.50;99.90;;;;;;4989438;28;20034;-78
2021/03/20 03:52:56;;;;;;;3.13;0.93;;;-1.70;99.90;;;;;;5022027;28;20034;-79
2021/03/20 03:55:22;;;;;;;2.58;1.10;;;-1.60;99.90;;;;;;5022142;28;20026;-78
2021/03/20 03:58:04;;;;;;;4.25;1.02;;;-1.70;99.90;;;;;;5022020;28;20061;-78
2021/03/20 04:00:42;;;;;;;2.20;0.88;;;-1.70;99.90;;;;;;5022073;28;20034;-78
2021/03/20 04:03:38;;;;;;;4.03;1.08;;;-1.70;99.90;;;;;;5021896;28;20038;-78
2021/03/20 04:06:29;;;;;;;2.67;0.95;;;-1.70;99.90;;;;;;5005325;28;20026;-78
2021/03/20 04:09:14;;;;;;;3.00;0.90;;;-1.70;99.90;;;;;;5005320;28;20061;-78
2021/03/20 04:11:56;;;;;;;3.33;1.00;;;-1.90;99.90;;;;;;4989059;28;20497;-79
2021/03/20 04:15:04;;;;;;;4.00;0.90;;;-1.90;99.90;;;;;;5005167;28;20042;-78
2021/03/20 04:17:45;;;;;;;2.70;0.90;;;-1.80;99.90;;;;;;5021512;28;20100;-79
2021/03/20 04:20:26;;;;;;;4.57;0.95;;;-1.70;99.90;;;;;;4989104;28;20034;-78
2021/03/20 04:23:02;;;;;;;3.20;1.10;;;-1.90;99.90;;;;;;4988968;28;20034;-78
2021/03/20 04:25:59;;;;;;;3.90;1.25;;;-1.90;99.90;;;;;;4989048;28;20113;-79
2021/03/20 04:28:43;;;;;;;3.50;1.02;;;-1.80;99.90;;;;;;4988804;28;20035;-78
2021/03/20 04:31:17;;;;;;;2.90;1.10;;;-1.90;99.90;;;;;;5021432;28;20034;-78
2021/03/20 04:34:05;;;;;;;3.35;1.02;;;-2.00;99.90;;;;;;5021190;28;20048;-78
2021/03/20 04:36:52;;;;;;;3.22;1.00;;;-2.10;99.90;;;;;;5103298;27;794526;-80
2021/03/20 04:39:22;;;;;;;3.47;1.20;;;-2.10;99.90;;;;;;5103411;28;20039;-80
2021/03/20 04:41:49;;;;;;;3.13;1.10;;;-2.00;99.90;;;;;;5101785;28;20162;-80
2021/03/20 04:44:16;;;;;;;3.88;1.10;;;-2.10;99.90;;;;;;5084907;28;20033;-80
2021/03/20 04:46:43;;;;;;;3.22;1.13;;;-2.10;99.90;;;;;;5084945;28;20032;-80
2021/03/20 04:49:32;;;;;;;3.97;1.13;;;-2.20;99.90;;;;;;5084643;28;20047;-80
2021/03/20 04:52:01;;;;;;;3.63;1.13;;;-2.30;99.90;;;;;;5101564;28;20028;-80
2021/03/20 04:54:27;;;;;;;3.60;1.17;;;-2.20;99.90;;;;;;5101626;28;20039;-80
2021/03/20 04:56:56;;;;;;;8.20;1.17;;;-2.20;99.90;;;;;;5084830;28;20040;-80
2021/03/20 04:59:38;;;;;;;3.78;1.15;;;-2.10;99.90;;;;;;5084564;28;20464;-80
2021/03/20 05:02:13;;;;;;;2.72;1.05;;;-2.20;99.90;;;;;;5084469;28;20032;-80
2021/03/20 05:04:42;;;;;;;4.05;1.20;;;-2.20;99.90;;;;;;5084381;28;20031;-80
2021/03/20 05:07:08;;;;;;;4.93;1.58;;;-2.30;99.90;;;;;;5066984;23;20476;-80
2021/03/20 05:09:34;;;;;;;3.40;1.05;;;-2.20;99.90;;;;;;5058080;28;20120;-79
2021/03/20 05:12:08;;;;;;;3.22;1.10;;;-2.20;99.90;;;;;;5058056;28;20044;-80
2021/03/20 05:15:03;;;;;;;3.45;1.27;;;-2.20;99.90;;;;;;5057931;28;20141;-79
2021/03/20 05:17:29;;;;;;;3.42;1.02;;;-2.30;99.90;;;;;;5040858;28;20049;-79
2021/03/20 05:19:54;;;;;;;4.07;1.25;;;-2.40;99.90;;;;;;5041189;28;20036;-79
2021/03/20 05:22:28;;;;;;;3.53;1.30;;;-2.30;99.90;;;;;;5042501;28;20052;-79
2021/03/20 05:24:55;;;;;;;5.65;1.42;;;-2.40;99.90;;;;;;5041310;28;20034;-79
2021/03/20 05:27:23;;;;;;;4.15;1.35;;;-2.40;99.90;;;;;;5041233;28;20105;-79
2021/03/20 05:29:50;;;;;;;3.78;1.35;;;-2.40;99.90;;;;;;5041287;28;20104;-79
2021/03/20 05:32:21;;;;;;;3.63;1.08;;;-2.50;99.90;;;;;;5041087;28;20450;-79
2021/03/20 05:34:47;;;;;;;4.00;1.30;;;-2.50;99.90;;;;;;5042254;28;20120;-79
2021/03/20 05:37:28;;;;;;;4.40;1.33;;;-2.50;99.90;;;;;;5040944;28;20029;-80
2021/03/20 05:39:54;;;;;;;3.88;1.40;;;-2.60;99.90;;;;;;5041177;28;20076;-79
2021/03/20 05:42:48;;;;;;;3.25;1.00;;;-2.60;99.90;;;;;;5040973;28;20470;-79
2021/03/20 05:45:28;;;;;;;2.83;1.05;;;-2.60;99.90;;;;;;5040977;28;20049;-80
2021/03/20 05:48:18;;;;;;;3.72;1.55;;;-2.30;99.90;;;;;;5028951;28;20029;-79
2021/03/20 05:51:11;;;;;;;4.53;1.50;;;-2.30;99.90;;;;;;5026971;28;20037;-79
2021/03/20 05:54:07;;;;;;;0.00;0.00;;;-2.50;99.90;;;;;;5043265;28;20129;-79
2021/03/20 05:56:39;;;;;;;0.00;0.00;;;-2.40;99.90;;;;;;5026706;28;20429;-80
2021/03/20 05:59:18;;;;;;;0.00;0.00;;;-2.40;99.90;;;;;;5043128;28;20330;-79
2021/03/20 06:02:09;;;;;;;0.00;0.00;;;-2.40;99.90;;;;;;5043016;28;20034;-79
2021/03/20 06:04:40;;;;;;;0.00;0.00;;;-2.50;99.90;;;;;;5010030;28;20056;-79
2021/03/20 06:07:33;;;;;;;1.08;1.08;;;-2.50;99.90;;;;;;5042552;28;20049;-79
2021/03/20 06:10:32;;;;;;;0.00;0.00;;;-2.40;99.90;;;;;;5009835;28;20030;-80
2021/03/20 06:13:25;;;;;;;0.00;0.00;;;-2.50;99.90;;;;;;5042823;28;20044;-80
2021/03/20 06:15:59;;;;;;;0.00;0.00;;;-2.40;99.90;;;;;;5009666;28;20037;-80
2021/03/20 06:18:47;;;;;;;0.00;0.00;;;-2.50;99.90;;;;;;5026208;28;20030;-79
2021/03/20 06:21:34;;;;;;;0.00;0.00;;;-2.30;99.90;;;;;;5025780;28;20033;-80
2021/03/20 06:24:19;;;;;;;0.00;0.00;;;-2.30;99.90;;;;;;5026009;28;20036;-79
2021/03/20 06:26:48;;;;;;;0.00;0.00;;;-2.30;99.90;;;;;;5025954;28;20030;-79
2021/03/20 06:29:23;;;;;;;0.00;0.00;;;-2.30;99.90;;;;;;5025975;28;20185;-80
2021/03/20 06:31:56;;;;;;;0.00;0.00;;;-2.20;99.90;;;;;;5025770;28;20090;-80
2021/03/20 06:34:25;;;;;;;0.00;0.00;;;-2.10;99.90;;;;;;5025557;28;20026;-80
2021/03/20 06:36:58;;;;;;;0.00;0.00;;;-2.00;99.90;;;;;;5027136;28;20120;-80
2021/03/20 06:40:03;;;;;;;0.00;0.00;;;-1.90;99.90;;;;;;5025738;28;20148;-80
2021/03/20 06:42:33;;;;;;;0.00;0.00;;;-1.90;99.90;;;;;;5015125;28;20046;-80
2021/03/20 06:45:12;;;;;;;0.00;0.00;;;-1.80;99.90;;;;;;5025544;28;20037;-80
2021/03/20 06:47:40;;;;;;;0.32;0.32;;;-1.80;99.90;;;;;;5025510;28;20113;-80
2021/03/20 06:50:19;;;;;;;0.00;0.00;;;-1.80;99.90;;;;;;5024342;28;20470;-81
2021/03/20 06:52:59;;;;;;;0.00;0.00;;;-1.50;99.90;;;;;;5024366;28;20028;-80
2021/03/20 06:55:26;;;;;;;0.00;0.00;;;-1.40;99.90;;;;;;5025275;28;20029;-80
2021/03/20 06:57:52;;;;;;;0.00;0.00;;;-1.30;99.90;;;;;;5024756;28;20061;-80
2021/03/20 07:00:26;;;;;;;0.00;0.00;;;-1.10;99.90;;;;;;5024540;28;20049;-80
2021/03/20 07:03:01;;;;;;;0.00;0.00;;;-0.90;99.90;;;;;;5024838;28;20053;-80
2021/03/20 07:05:53;;;;;;;0.00;0.00;;;-0.90;99.90;;;;;;5008253;28;20037;-80
2021/03/20 07:08:43;;;;;;;0.00;0.00;;;-0.90;99.90;;;;;;5029510;23;20072;-80
2021/03/20 07:11:36;;;;;;;;;;;-0.80;99.90;;;;;;5009258;28;20081;-80
2021/03/20 07:14:04;;;;;;;0.00;0.00;;;-0.60;99.90;;;;;;5037919;28;19910;-81
2021/03/20 07:16:49;;;;;;;0.00;0.00;;;-0.50;99.90;;;;;;5021831;28;20040;-80
2021/03/20 07:19:15;;;;;;;0.00;0.00;;;-0.50;99.90;;;;;;5021007;28;20099;-81
2021/03/20 07:21:43;;;;;;;0.00;0.00;;;-0.40;99.90;;;;;;5005166;28;20481;-80
2021/03/20 07:24:30;;;;;;;0.00;0.00;;;-0.30;99.90;;;;;;4989343;28;20090;-81
2021/03/20 07:27:06;;;;;;;0.00;0.00;;;-0.20;99.90;;;;;;4989464;28;20037;-81
2021/03/20 07:29:44;;;;;;;0.00;0.00;;;-0.20;99.90;;;;;;4989515;28;20386;-82
2021/03/20 07:32:29;;;;;;;0.00;0.00;;;0.00;99.90;;;;;;4974707;28;20085;-81
2021/03/20 07:35:17;;;;;;;0.00;0.00;;;0.10;99.90;;;;;;4986751;28;20122;-82
2021/03/20 07:37:43;;;;;;;0.00;0.00;;;0.10;99.90;;;;;;4985406;28;20106;-81
2021/03/20 07:40:27;;;;;;;0.00;0.00;;;0.30;99.90;;;;;;4985616;28;20042;-82
2021/03/20 07:43:13;;;;;;;0.00;0.00;;;0.50;99.90;;;;;;4985795;28;20035;-82
2021/03/20 07:45:40;;;;;;;0.00;0.00;;;0.60;99.90;;;;;;4985363;28;20066;-81
2021/03/20 07:48:18;;;;;;;0.00;0.00;;;0.70;99.90;;;;;;4985392;28;20034;-81
2021/03/20 07:50:48;;;;;;;0.00;0.00;;;0.60;99.90;;;;;;4992538;28;20030;-81
2021/03/20 07:53:19;;;;;;;0.00;0.00;;;0.80;99.90;;;;;;5004842;28;20482;-81
2021/03/20 07:56:04;;;;;;;0.25;0.25;;;0.90;99.90;;;;;;5004612;28;20063;-82
2021/03/20 07:58:35;;;;;;;0.00;0.00;;;1.10;99.90;;;;;;5004940;28;20046;-82
2021/03/20 08:01:21;;;;;;;0.00;0.00;;;1.30;99.90;;;;;;5004658;28;20069;-83
2021/03/20 08:04:05;;;;;;;0.00;0.00;;;1.30;99.90;;;;;;5004823;28;20026;-82
2021/03/20 08:06:30;;;;;;;0.00;0.00;;;1.40;99.90;;;;;;5004314;28;20100;-82
2021/03/20 08:09:18;;;;;;;0.00;0.00;;;1.40;99.90;;;;;;5004231;28;20051;-83
2021/03/20 08:12:10;;;;;;;0.00;0.00;;;1.50;99.90;;;;;;5004397;28;20030;-82
2021/03/20 08:14:36;;;;;;;0.00;0.00;;;1.60;99.90;;;;;;4981853;28;20034;-82
2021/03/20 08:17:01;;;;;;;0.00;0.00;;;1.70;99.90;;;;;;4992010;28;20081;-83
2021/03/20 08:19:31;;;;;;;0.00;0.00;;;1.80;99.90;;;;;;4985067;28;20048;-82
2021/03/20 08:22:35;;;;;;;0.00;0.00;;;2.00;99.90;;;;;;4984763;28;20046;-82
2021/03/20 08:25:25;;;;;;;0.00;0.00;;;2.10;99.90;;;;;;4985372;28;20030;-82
2021/03/20 08:28:28;;;;;;;0.00;0.00;;;2.20;99.90;;;;;;4984715;28;20046;-83
2021/03/20 08:31:24;;;;;;;0.00;0.00;;;2.30;99.90;;;;;;4984660;28;20038;-82
2021/03/20 08:34:10;;;;;;;0.00;0.00;;;2.60;99.90;;;;;;4984930;28;20065;-82
2021/03/20 08:37:18;;;;;;;0.00;0.00;;;2.70;99.90;;;;;;4984563;28;20093;-82
2021/03/20 08:40:07;;;;;;;0.00;0.00;;;3.00;99.90;;;;;;4984915;28;20031;-82
2021/03/20 08:43:03;;;;;;;0.00;0.00;;;3.10;99.90;;;;;;4984535;28;20038;-82
2021/03/20 08:45:48;;;;;;;0.05;0.05;;;3.10;99.90;;;;;;4984902;28;20035;-83
2021/03/20 08:48:58;;;;;;;0.00;0.00;;;3.10;99.90;;;;;;4986102;28;20034;-83
2021/03/20 08:51:52;;;;;;;0.00;0.00;;;3.20;99.90;;;;;;5008105;28;20046;-83
2021/03/20 08:54:49;;;;;;;0.00;0.00;;;3.30;99.90;;;;;;5004130;28;20101;-83
2021/03/20 08:57:39;;;;;;;0.00;0.00;;;3.50;99.90;;;;;;5004371;28;20046;-82
2021/03/20 09:00:31;;;;;;;0.00;0.00;;;3.70;99.90;;;;;;5004377;28;20050;-83
2021/03/20 09:03:03;;;;;;;0.00;0.00;;;3.90;99.90;;;;;;5004143;28;20030;-83
2021/03/20 09:09:43;;;;;;;0.00;0.00;;;3.90;99.90;;;;;;4899407;29;20067;-82
2021/03/20 09:12:26;;;;;;;0.00;0.00;;;4.00;99.90;;;;;;4891210;29;20441;-83
2021/03/20 09:14:52;;;;;;;0.00;0.00;;;3.80;99.90;;;;;;4875800;29;20069;-83
2021/03/20 09:17:27;;;;;;;0.00;0.00;;;3.90;99.90;;;;;;4875554;29;20043;-83
2021/03/20 09:20:11;;;;;;;0.00;0.00;;;4.20;99.90;;;;;;4906814;29;20037;-82
2021/03/20 09:22:44;;;;;;;0.00;0.00;;;4.20;99.90;;;;;;4909019;29;20148;-83
2021/03/20 09:25:19;;;;;;;0.00;0.00;;;4.00;99.90;;;;;;4910411;29;20040;-83
2021/03/20 09:28:06;;;;;;;0.00;0.00;;;4.00;99.90;;;;;;4910420;29;20104;-82
2021/03/20 09:30:43;;;;;;;0.00;0.00;;;4.10;99.90;;;;;;4910391;29;20032;-83
2021/03/20 09:33:33;;;;;;;0.00;0.00;;;4.10;99.90;;;;;;4910289;29;20056;-83
2021/03/20 09:36:00;;;;;;;;;;;4.50;99.90;;;;;;4910505;29;20112;-83
2021/03/20 09:38:35;;;;;;;0.00;0.00;;;4.50;99.90;;;;;;4909992;29;19919;-83
2021/03/20 09:41:14;;;;;;;0.00;0.00;;;4.70;99.90;;;;;;4910046;29;20119;-83
2021/03/20 09:43:58;;;;;;;0.00;0.00;;;5.00;99.90;;;;;;4910175;29;20080;-83
2021/03/20 09:46:39;;;;;;;0.00;0.00;;;5.40;99.90;;;;;;4969585;28;20106;-83
2021/03/20 09:49:07;;;;;;;0.00;0.00;;;5.60;99.90;;;;;;4969600;28;20118;-83
2021/03/20 09:51:48;;;;;;;0.00;0.00;;;5.70;99.90;;;;;;4968255;29;20024;-83
2021/03/20 09:54:40;;;;;;;0.00;0.00;;;6.00;99.90;;;;;;4984272;28;20039;-83
2021/03/20 09:57:06;;;;;;;0.00;0.00;;;6.10;99.90;;;;;;4979957;28;20047;-83
2021/03/20 09:59:34;;;;;;;0.00;0.00;;;5.60;99.90;;;;;;4968310;29;20058;-83
2021/03/20 10:02:20;;;;;;;0.00;0.00;;;5.80;99.90;;;;;;4968017;29;20042;-84
2021/03/20 10:04:52;;;;;;;0.00;0.00;;;5.80;99.90;;;;;;4961196;29;20129;-84
2021/03/20 10:07:21;;;;;;;0.88;0.20;;;5.80;99.90;;;;;;4967790;29;20127;-83
2021/03/20 10:09:50;;;;;;;0.00;0.00;;;6.00;99.90;;;;;;4999624;28;20050;-83
2021/03/20 10:12:20;;;;;;;0.00;0.00;;;6.00;99.90;;;;;;5006901;28;20106;-83
2021/03/20 10:15:11;;;;;;;0.57;0.35;;;6.10;99.90;;;;;;5006495;28;20030;-83
2021/03/20 10:18:03;;;;;;;0.10;0.08;;;5.90;99.90;;;;;;4989269;28;20027;-84
2021/03/20 10:21:02;;;;;;;0.00;0.00;;;5.70;99.90;;;;;;4986836;28;20035;-84
2021/03/20 10:23:58;;;;;;;0.00;0.00;;;5.90;99.90;;;;;;4971209;28;20046;-83
2021/03/20 10:26:32;;;;;;;0.35;0.35;;;6.00;99.90;;;;;;4970112;28;20050;-83
2021/03/20 10:29:06;;;;;;;2.03;0.90;;;5.90;99.90;;;;;;4986872;28;20102;-83
2021/03/20 10:31:45;;;;;;;0.00;0.00;;;5.80;99.90;;;;;;4986694;28;20023;-83
2021/03/20 10:34:14;;;;;;;0.00;0.00;;;6.10;99.90;;;;;;4986550;28;20094;-83
2021/03/20 10:36:45;;;;;;;0.00;0.00;;;6.60;99.90;;;;;;4986322;28;20043;-84
2021/03/20 10:39:36;;;;;;;0.00;0.00;;;6.30;99.90;;;;;;4986794;28;20098;-83
2021/03/20 10:42:25;;;;;;;0.55;0.50;;;6.70;99.90;;;;;;4986426;28;20035;-83
2021/03/20 10:44:56;;;;;;;0.00;0.00;;;6.70;99.90;;;;;;4970435;28;20121;-84
2021/03/20 10:47:27;;;;;;;0.00;0.00;;;6.60;99.90;;;;;;4986507;28;20043;-84
2021/03/20 10:50:01;;;;;;;0.00;0.00;;;6.50;99.90;;;;;;4960756;28;20051;-83
2021/03/20 10:52:33;;;;;;;0.00;0.00;;;6.60;99.90;;;;;;4998763;28;20034;-83
2021/03/20 10:55:03;;;;;;;0.00;0.00;;;6.40;99.90;;;;;;4998293;28;20066;-84
2021/03/20 10:57:31;;;;;;;0.00;0.00;;;6.80;99.90;;;;;;4990294;28;20029;-84
2021/03/20 10:59:57;;;;;;;0.00;0.00;;;7.10;99.90;;;;;;5000032;28;20502;-84
2021/03/20 11:02:30;;;;;;;0.00;0.00;;;7.30;99.90;;;;;;4987504;28;20114;-84
2021/03/20 11:05:31;;;;;;;0.00;0.00;;;7.30;99.90;;;;;;5002070;28;20031;-83
2021/03/20 11:08:00;;;;;;;0.00;0.00;;;7.30;99.90;;;;;;4980480;28;20034;-83
2021/03/20 11:10:28;;;;;;;0.00;0.00;;;7.40;99.90;;;;;;5001618;28;20043;-84
2021/03/20 11:12:55;;;;;;;0.00;0.00;;;7.10;99.90;;;;;;5001520;28;20038;-84
2021/03/20 11:15:26;;;;;;;0.00;0.00;;;7.00;99.90;;;;;;5002293;28;20034;-83
2021/03/20 11:17:54;;;;;;;0.15;0.15;;;7.10;99.90;;;;;;4985005;28;20130;-83
2021/03/20 11:20:31;;;;;;;0.00;0.00;;;7.20;99.90;;;;;;5004091;28;20038;-83
2021/03/20 11:22:57;;;;;;;0.00;0.00;;;7.40;99.90;;;;;;4997719;28;20125;-84
2021/03/20 11:25:28;;;;;;;0.00;0.00;;;7.10;99.90;;;;;;4988506;28;20038;-83
2021/03/20 11:28:25;;;;;;;0.00;0.00;;;7.60;99.90;;;;;;5001116;28;20030;-83
2021/03/20 11:30:53;;;;;;;0.00;0.00;;;7.50;99.90;;;;;;5004491;28;20036;-83
2021/03/20 11:33:21;;;;;;;0.00;0.00;;;7.50;99.90;;;;;;4996816;28;20026;-83
2021/03/20 11:35:50;;;;;;;0.00;0.00;;;8.00;99.90;;;;;;5004784;28;20170;-83
2021/03/20 11:38:18;;;;;;;0.00;0.00;;;8.20;99.90;;;;;;5003207;28;20093;-83
2021/03/20 11:41:05;;;;;;;0.00;0.00;;;7.90;99.90;;;;;;5002964;28;20035;-84
2021/03/20 11:43:33;;;;;;;0.00;0.00;;;7.70;99.90;;;;;;4996209;28;20030;-83
2021/03/20 11:46:17;;;;;;;0.55;0.55;;;8.10;99.90;;;;;;4987804;28;20344;-84
2021/03/20 11:49:01;;;;;;;0.00;0.00;;;8.40;99.90;;;;;;4980976;28;20057;-84
2021/03/20 11:51:43;;;;;;;0.28;0.00;;;8.20;99.90;;;;;;5001151;28;20127;-83
2021/03/20 11:54:28;;;;;;;0.00;0.00;;;7.70;99.90;;;;;;4982902;28;20034;-86
2021/03/20 11:57:36;;;;;;;0.00;0.00;;;7.50;99.90;;;;;;4989133;28;20042;-85
2021/03/20 12:00:23;;;;;;;0.00;0.00;;;8.00;99.90;;;;;;5002196;28;20069;-85
2021/03/20 12:02:48;;;;;;;0.00;0.00;;;8.10;99.90;;;;;;4987749;28;20041;-84
2021/03/20 12:05:24;;;;;;;0.10;0.10;;;8.00;99.90;;;;;;5004073;28;20026;-85
2021/03/20 12:07:51;;;;;;;0.00;0.00;;;8.40;99.90;;;;;;5002345;28;20062;-83
2021/03/20 12:10:23;;;;;;;0.00;0.00;;;8.70;99.90;;;;;;4991966;28;20042;-84
2021/03/20 12:12:53;;;;;;;0.00;0.00;;;8.40;99.90;;;;;;4995987;28;20557;-84
2021/03/20 12:15:29;;;;;;;0.00;0.00;;;8.90;99.90;;;;;;5003688;28;20422;-85
2021/03/20 12:17:57;;;;;;;0.00;0.00;;;9.10;99.90;;;;;;4986722;28;20177;-84
2021/03/20 12:20:25;;;;;;;0.00;0.00;;;9.40;99.90;;;;;;4999673;28;20040;-84
2021/03/20 12:22:54;;;;;;;0.20;0.10;;;9.50;99.90;;;;;;4986129;28;20058;-84
2021/03/20 12:25:38;;;;;;;1.45;0.43;;;9.30;99.90;;;;;;4999695;28;20046;-84
2021/03/20 12:28:37;;;;;;;0.00;0.00;;;9.20;99.90;;;;;;4989006;28;20096;-84
2021/03/20 12:31:19;;;;;;;0.70;0.25;;;9.50;99.90;;;;;;5019630;28;20058;-85
2021/03/20 12:34:01;;;;;;;0.00;0.00;;;9.50;99.90;;;;;;5001577;28;20034;-83
2021/03/20 12:36:31;;;;;;;0.00;0.00;;;9.50;99.90;;;;;;5003664;28;20042;-85
2021/03/20 12:38:57;;;;;;;0.00;0.00;;;8.90;99.90;;;;;;4997051;28;20053;-84
2021/03/20 12:41:25;;;;;;;0.63;0.63;;;9.30;99.90;;;;;;5002136;28;20062;-83
2021/03/20 12:44:22;;;;;;;0.70;0.00;;;9.10;99.90;;;;;;4995351;28;20078;-84
2021/03/20 12:47:03;;;;;;;0.00;0.00;;;8.80;99.90;;;;;;4999328;28;20104;-84
2021/03/20 12:49:32;;;;;;;;;;;8.80;99.90;;;;;;4998181;28;20058;-84
2021/03/20 12:52:02;;;;;;;0.00;0.00;;;8.80;99.90;;;;;;4966141;28;19917;-82
2021/03/20 12:54:33;;;;;;;0.00;0.00;;;9.00;99.90;;;;;;4984185;28;20115;-84
2021/03/20 12:56:59;;;;;;;2.58;0.80;;;9.40;99.90;;;;;;4971920;28;20039;-83
2021/03/20 12:59:25;;;;;;;1.58;0.63;;;9.60;99.90;;;;;;4982024;28;20034;-84
2021/03/20 13:01:50;;;;;;;2.25;1.00;;;9.50;99.90;;;;;;4971896;28;20030;-84
2021/03/20 13:04:19;;;;;;;2.15;0.80;;;9.60;99.90;;;;;;4987942;28;20031;-84
2021/03/20 13:06:45;;;;;;;1.92;0.90;;;9.50;99.90;;;;;;4987891;28;20038;-84
2021/03/20 13:09:11;;;;;;;3.75;1.38;;;9.50;99.90;;;;;;4969311;28;20055;-83
2021/03/20 13:11:36;;;;;;;2.65;1.48;;;9.10;99.90;;;;;;4983283;28;20069;-85
2021/03/20 13:14:04;;;;;;;2.67;1.10;;;9.30;99.90;;;;;;4979737;28;20034;-84
2021/03/20 13:16:30;;;;;;;2.00;0.90;;;9.40;99.90;;;;;;4979589;28;20054;-84
2021/03/20 13:18:55;;;;;;;2.30;0.90;;;9.60;99.90;;;;;;4973653;28;20032;-84
2021/03/20 13:21:22;;;;;;;2.30;1.13;;;9.30;99.90;;;;;;4984018;28;20035;-85
2021/03/20 13:23:49;;;;;;;6.82;1.50;;;9.60;99.90;;;;;;4980633;28;20030;-86
2021/03/20 13:26:15;;;;;;;2.80;1.50;;;9.50;99.90;;;;;;4987535;28;20033;-85
2021/03/20 13:28:41;;;;;;;2.65;1.38;;;9.20;99.90;;;;;;4980422;28;20046;-85
2021/03/20 13:31:13;;;;;;;4.80;1.50;;;9.40;99.90;;;;;;4986190;28;20038;-85
2021/03/20 13:33:47;;;;;;;2.67;1.05;;;9.50;99.90;;;;;;4980836;28;20081;-85
2021/03/20 13:36:29;;;;;;;3.60;1.30;;;9.70;99.90;;;;;;4976906;28;20083;-84
2021/03/20 13:38:55;;;;;;;4.18;1.08;;;9.20;99.90;;;;;;4979863;28;20039;-85
2021/03/20 13:41:22;;;;;;;3.47;1.30;;;9.90;99.90;;;;;;4984321;28;20024;-83
2021/03/20 13:43:48;;;;;;;4.25;1.20;;;10.00;99.90;;;;;;4984401;28;20031;-83